Time;durP1;ratioP1;P1;durP2;ratioP2;P2;SDS_P1;SDS_P2;PMS_P1;PMS_P2;Temp;Humidity;BMP_temperature;BMP_pressure;BME280_temperature;BME280_humidity;BME280_pressure;Samples;Min_cycle;Max_cycle;Signal;HPM_P1;HPM_P2
2023/01/01 00:14:27;;;;;;;11.67;5.13;;;16.70;99.90;;;;;;4720586;30;20598;-85
2023/01/01 00:17:28;;;;;;;;;;;;;;;;;;;;;
2023/01/01 00:23:15;;;;;;;9.27;4.43;;;16.70;99.90;;;;;;4769387;29;20857;-84
2023/01/01 00:25:44;;;;;;;12.57;3.67;;;16.70;99.90;;;;;;4826076;29;20457;-83
2023/01/01 00:28:09;;;;;;;5.77;2.67;;;16.60;99.90;;;;;;4839619;29;20208;-85
2023/01/01 00:30:39;;;;;;;8.43;3.20;;;16.60;99.90;;;;;;4836936;29;20534;-86
2023/01/01 00:33:05;;;;;;;6.90;2.80;;;16.50;99.90;;;;;;4845427;29;20251;-85
2023/01/01 00:35:30;;;;;;;4.83;2.97;;;16.50;99.90;;;;;;4846400;29;20962;-85
2023/01/01 00:37:56;;;;;;;13.80;3.17;;;16.50;99.90;;;;;;4836848;29;20306;-85
2023/01/01 00:40:22;;;;;;;7.03;2.50;;;16.50;99.90;;;;;;4850844;29;20256;-84
2023/01/01 00:42:47;;;;;;;3.50;2.10;;;16.40;99.90;;;;;;4839032;29;20672;-85
2023/01/01 00:45:13;;;;;;;3.70;1.87;;;16.40;99.90;;;;;;4838159;29;20954;-86
2023/01/01 00:47:38;;;;;;;6.30;2.33;;;16.40;99.90;;;;;;4844784;29;20223;-85
2023/01/01 00:50:04;;;;;;;6.70;2.17;;;16.40;99.90;;;;;;4842092;29;20266;-85
2023/01/01 00:52:30;;;;;;;6.37;2.20;;;16.40;99.90;;;;;;4843628;29;20198;-86
2023/01/01 00:54:55;;;;;;;9.60;2.37;;;16.40;99.90;;;;;;4838051;29;20456;-85
2023/01/01 00:57:32;;;;;;;4.57;2.43;;;16.40;99.90;;;;;;4851105;29;20192;-88
2023/01/01 00:59:57;;;;;;;6.50;2.30;;;16.40;99.90;;;;;;4836550;29;20856;-88
2023/01/01 01:02:23;;;;;;;6.60;2.37;;;16.30;99.90;;;;;;4836586;29;20516;-88
2023/01/01 01:04:48;;;;;;;3.80;1.80;;;16.30;99.90;;;;;;4837618;29;20184;-87
2023/01/01 01:07:14;;;;;;;5.20;2.30;;;16.30;99.90;;;;;;4831341;29;20265;-85
2023/01/01 01:09:39;;;;;;;5.20;2.50;;;16.30;99.90;;;;;;4849910;29;20678;-87
2023/01/01 01:12:05;;;;;;;4.37;1.73;;;16.30;99.90;;;;;;4841162;29;20192;-88
2023/01/01 01:14:31;;;;;;;4.73;2.10;;;16.30;99.90;;;;;;4841773;29;20190;-88
2023/01/01 01:16:56;;;;;;;4.40;1.60;;;16.40;99.90;;;;;;4843486;29;20284;-88
2023/01/01 01:19:24;;;;;;;4.03;2.50;;;16.30;99.90;;;;;;4837636;29;20217;-87
2023/01/01 01:21:50;;;;;;;4.70;1.70;;;16.30;99.90;;;;;;4836546;29;20189;-88
2023/01/01 01:24:16;;;;;;;4.03;2.13;;;16.30;99.90;;;;;;4847015;29;20442;-87
2023/01/01 01:26:42;;;;;;;3.80;1.60;;;16.30;99.90;;;;;;4825378;29;20446;-87
2023/01/01 01:29:07;;;;;;;5.23;1.63;;;16.30;99.90;;;;;;4848438;29;20212;-87
2023/01/01 01:31:33;;;;;;;3.43;1.87;;;16.30;99.90;;;;;;4846453;29;20193;-85
2023/01/01 01:33:59;;;;;;;4.50;2.00;;;16.20;99.90;;;;;;4838403;29;20425;-85
2023/01/01 01:36:26;;;;;;;2.27;1.50;;;16.20;99.90;;;;;;4846189;29;20576;-85
2023/01/01 01:38:52;;;;;;;11.23;3.70;;;16.20;99.90;;;;;;4847380;29;20560;-85
2023/01/01 01:41:21;;;;;;;6.10;2.03;;;16.20;99.90;;;;;;4850304;29;20463;-85
2023/01/01 01:43:54;;;;;;;7.30;1.80;;;16.20;99.90;;;;;;4858369;29;20432;-85
2023/01/01 01:46:36;;;;;;;5.80;1.63;;;16.20;99.90;;;;;;4851034;29;20433;-85
2023/01/01 01:49:20;;;;;;;8.03;1.87;;;16.20;99.90;;;;;;4844120;29;20520;-86
2023/01/01 01:51:46;;;;;;;3.67;1.40;;;16.20;99.90;;;;;;4842456;29;20539;-86
2023/01/01 01:54:17;;;;;;;5.70;2.07;;;16.20;99.90;;;;;;4847970;29;20445;-86
2023/01/01 01:56:48;;;;;;;5.90;1.70;;;16.20;99.90;;;;;;4839246;29;20420;-86
2023/01/01 01:59:16;;;;;;;6.10;1.80;;;16.10;99.90;;;;;;4839762;29;20846;-86
2023/01/01 02:01:41;;;;;;;4.10;1.80;;;16.20;99.90;;;;;;4835367;29;20450;-85
2023/01/01 02:04:07;;;;;;;7.60;3.27;;;16.10;99.90;;;;;;4835902;29;20495;-86
2023/01/01 02:06:34;;;;;;;5.13;2.13;;;16.10;99.90;;;;;;4844806;29;20197;-85
2023/01/01 02:09:03;;;;;;;4.93;1.87;;;16.10;99.90;;;;;;4842743;29;20343;-84
2023/01/01 02:11:28;;;;;;;3.20;1.80;;;16.10;99.90;;;;;;4854555;29;20454;-85
2023/01/01 02:13:55;;;;;;;7.70;2.00;;;16.10;99.90;;;;;;4867120;29;20449;-85
2023/01/01 02:16:28;;;;;;;5.00;1.80;;;16.10;99.90;;;;;;4846022;29;20204;-85
2023/01/01 02:19:09;;;;;;;5.30;1.90;;;16.10;99.90;;;;;;4844327;29;21017;-85
2023/01/01 02:21:47;;;;;;;2.50;1.70;;;16.10;99.90;;;;;;4837002;29;20454;-86
2023/01/01 02:24:18;;;;;;;12.33;1.77;;;16.10;99.90;;;;;;4852762;29;20446;-85
2023/01/01 02:26:58;;;;;;;2.13;1.20;;;16.10;99.90;;;;;;4853177;29;20441;-85
2023/01/01 02:29:55;;;;;;;4.03;1.50;;;16.10;99.90;;;;;;4841183;29;20857;-85
2023/01/01 02:32:34;;;;;;;3.30;1.67;;;16.10;99.90;;;;;;4840662;29;20465;-84
2023/01/01 02:37:59;;;;;;;4.37;1.93;;;16.00;99.90;;;;;;4841018;29;20859;-85
2023/01/01 02:40:26;;;;;;;8.50;2.70;;;16.00;99.90;;;;;;4855473;29;20501;-84
2023/01/01 02:42:54;;;;;;;4.23;1.57;;;16.00;99.90;;;;;;4841704;29;20506;-85
2023/01/01 02:45:20;;;;;;;3.43;1.87;;;16.00;99.90;;;;;;4844756;29;20474;-85
2023/01/01 02:47:46;;;;;;;6.13;2.40;;;16.00;99.90;;;;;;4839901;29;20441;-85
2023/01/01 02:50:17;;;;;;;6.93;2.00;;;16.00;99.90;;;;;;4851717;29;20905;-86
2023/01/01 02:52:53;;;;;;;3.67;1.50;;;15.90;99.90;;;;;;4843333;29;20275;-85
2023/01/01 02:55:40;;;;;;;4.10;1.80;;;15.90;99.90;;;;;;4847965;29;20456;-85
2023/01/01 03:01:08;;;;;;;6.43;2.87;;;15.90;99.90;;;;;;4835699;29;20517;-85
2023/01/01 03:03:42;;;;;;;3.40;1.77;;;15.90;99.90;;;;;;4827400;29;20805;-87
2023/01/01 03:06:21;;;;;;;4.40;1.63;;;15.80;99.90;;;;;;4850722;29;20983;-85
2023/01/01 03:09:01;;;;;;;6.33;1.70;;;15.80;99.90;;;;;;4851261;29;21037;-85
2023/01/01 03:11:42;;;;;;;4.57;2.40;;;15.80;99.90;;;;;;4843498;29;20437;-85
2023/01/01 03:14:20;;;;;;;3.90;1.50;;;15.80;99.90;;;;;;4839169;29;20453;-85
2023/01/01 03:17:09;;;;;;;3.73;1.70;;;15.80;99.90;;;;;;4850737;29;20444;-84
2023/01/01 03:19:38;;;;;;;9.20;2.10;;;15.80;99.90;;;;;;4843603;29;20574;-85
2023/01/01 03:22:08;;;;;;;6.40;2.40;;;15.80;99.90;;;;;;4839244;29;20991;-85
2023/01/01 03:24:37;;;;;;;4.57;1.80;;;15.80;99.90;;;;;;4839950;29;20445;-85
2023/01/01 03:27:18;;;;;;;5.17;1.80;;;15.70;99.90;;;;;;4845062;29;20439;-85
2023/01/01 03:29:45;;;;;;;4.13;1.50;;;15.70;99.90;;;;;;4848504;29;20467;-85
2023/01/01 03:32:15;;;;;;;5.87;2.20;;;15.70;99.90;;;;;;4851036;29;20471;-85
2023/01/01 03:34:47;;;;;;;8.73;1.67;;;15.70;99.90;;;;;;4837585;29;20879;-85
2023/01/01 03:37:21;;;;;;;4.57;2.03;;;15.60;99.90;;;;;;4847163;29;20464;-85
2023/01/01 03:39:54;;;;;;;3.13;1.73;;;15.70;99.90;;;;;;4838406;29;20849;-85
2023/01/01 03:42:37;;;;;;;5.93;1.87;;;15.70;99.90;;;;;;4829183;29;20460;-85
2023/01/01 03:45:11;;;;;;;4.93;2.03;;;15.70;99.90;;;;;;4839129;29;20877;-87
2023/01/01 03:47:37;;;;;;;9.47;2.03;;;15.60;99.90;;;;;;4845363;29;20516;-85
2023/01/01 03:50:04;;;;;;;5.33;1.70;;;15.70;99.90;;;;;;4840479;29;20496;-86
2023/01/01 03:52:55;;;;;;;5.63;1.80;;;15.70;99.90;;;;;;4847395;29;20745;-85
2023/01/01 03:55:33;;;;;;;6.10;2.53;;;15.60;99.90;;;;;;4843528;29;20486;-85
2023/01/01 03:58:07;;;;;;;3.80;1.70;;;15.60;99.90;;;;;;4827561;29;20449;-84
2023/01/01 04:00:36;;;;;;;9.23;2.13;;;15.60;99.90;;;;;;4838019;29;20536;-85
2023/01/01 04:03:10;;;;;;;6.90;2.37;;;15.60;99.90;;;;;;4829702;29;20446;-85
2023/01/01 04:05:39;;;;;;;3.97;1.60;;;15.60;99.90;;;;;;4837714;29;20827;-85
2023/01/01 04:08:06;;;;;;;3.63;1.90;;;15.60;99.90;;;;;;4839431;29;20444;-85
2023/01/01 04:10:35;;;;;;;3.53;1.60;;;15.60;99.90;;;;;;4848091;29;20503;-85
2023/01/01 04:13:04;;;;;;;3.60;1.70;;;15.60;99.90;;;;;;4838215;29;20538;-85
2023/01/01 04:15:30;;;;;;;3.40;1.27;;;15.60;99.90;;;;;;4840537;29;20480;-85
2023/01/01 04:17:56;;;;;;;2.70;1.40;;;15.60;99.90;;;;;;4844964;29;20457;-84
2023/01/01 04:20:22;;;;;;;5.17;1.90;;;15.60;99.90;;;;;;4848832;29;20498;-82
2023/01/01 04:22:48;;;;;;;4.00;1.90;;;15.60;99.90;;;;;;4848164;29;20687;-85
2023/01/01 04:25:14;;;;;;;6.90;2.00;;;15.50;99.90;;;;;;4838802;29;20444;-86
2023/01/01 04:27:40;;;;;;;4.43;1.83;;;15.50;99.90;;;;;;4839357;29;20181;-85
2023/01/01 04:30:09;;;;;;;10.20;2.40;;;15.60;99.90;;;;;;4843883;29;20506;-85
2023/01/01 04:32:35;;;;;;;8.57;2.53;;;15.50;99.90;;;;;;4851092;29;20441;-85
2023/01/01 04:35:00;;;;;;;5.00;1.60;;;15.50;99.90;;;;;;4848536;29;20445;-85
2023/01/01 04:37:26;;;;;;;9.73;2.10;;;15.50;99.90;;;;;;4846887;29;20203;-84
2023/01/01 04:39:51;;;;;;;5.03;1.80;;;15.50;99.90;;;;;;4839331;29;20231;-85
2023/01/01 04:42:17;;;;;;;4.97;1.73;;;15.50;99.90;;;;;;4846036;29;20641;-85
2023/01/01 04:44:43;;;;;;;7.80;2.43;;;15.50;99.90;;;;;;4845103;29;20184;-85
2023/01/01 04:47:08;;;;;;;5.33;1.83;;;15.40;99.90;;;;;;4850364;29;20742;-86
2023/01/01 04:49:34;;;;;;;6.00;2.00;;;15.40;99.90;;;;;;4848417;29;20409;-85
2023/01/01 04:52:00;;;;;;;2.83;1.50;;;15.40;99.90;;;;;;4840268;29;20322;-86
2023/01/01 04:54:25;;;;;;;9.27;2.00;;;15.40;99.90;;;;;;4842021;29;20188;-84
2023/01/01 04:56:51;;;;;;;3.60;1.90;;;15.40;99.90;;;;;;4847538;29;20199;-85
2023/01/01 04:59:16;;;;;;;3.60;2.20;;;15.30;99.90;;;;;;4844328;29;20228;-85
2023/01/01 05:01:42;;;;;;;2.67;1.80;;;15.30;99.90;;;;;;4848236;29;20180;-86
2023/01/01 05:04:12;;;;;;;3.30;1.80;;;15.30;99.90;;;;;;4847499;29;20188;-85
2023/01/01 05:06:37;;;;;;;9.37;2.17;;;15.20;99.90;;;;;;4845143;29;20199;-85
2023/01/01 05:09:03;;;;;;;5.60;1.83;;;15.20;99.90;;;;;;4843309;29;20464;-85
2023/01/01 05:11:29;;;;;;;5.13;1.97;;;15.20;99.90;;;;;;4847725;29;20565;-85
2023/01/01 05:13:58;;;;;;;3.43;1.50;;;15.20;99.90;;;;;;4843645;29;20212;-84
2023/01/01 05:16:26;;;;;;;5.40;1.80;;;15.20;99.90;;;;;;4842887;29;20448;-85
2023/01/01 05:18:52;;;;;;;2.50;1.70;;;15.20;99.90;;;;;;4847951;29;20484;-85
2023/01/01 05:21:21;;;;;;;7.10;1.77;;;15.20;99.90;;;;;;4845239;29;20447;-85
2023/01/01 05:23:47;;;;;;;3.53;2.10;;;15.20;99.90;;;;;;4850030;29;20435;-85
2023/01/01 05:26:19;;;;;;;5.13;2.17;;;15.20;99.90;;;;;;4846873;29;20436;-85
2023/01/01 05:28:46;;;;;;;7.43;2.10;;;15.20;99.90;;;;;;4845560;29;20306;-85
2023/01/01 05:31:16;;;;;;;6.70;2.60;;;15.20;99.90;;;;;;4848611;29;20477;-86
2023/01/01 05:33:42;;;;;;;5.60;2.10;;;15.30;99.90;;;;;;4839891;29;20446;-85
2023/01/01 05:36:12;;;;;;;5.73;2.20;;;15.30;99.90;;;;;;4860041;29;20448;-86
2023/01/01 05:38:38;;;;;;;5.17;1.83;;;15.30;99.90;;;;;;4857250;29;20468;-85
2023/01/01 05:41:08;;;;;;;6.73;2.20;;;15.30;99.90;;;;;;4842369;29;20459;-85
2023/01/01 05:43:34;;;;;;;2.33;1.67;;;15.20;99.90;;;;;;4847334;29;20684;-85
2023/01/01 05:46:02;;;;;;;3.47;2.10;;;15.30;99.90;;;;;;4845705;29;20735;-85
2023/01/01 05:48:27;;;;;;;5.00;1.67;;;15.30;99.90;;;;;;4845015;29;20459;-85
2023/01/01 05:50:53;;;;;;;5.13;2.27;;;15.30;99.90;;;;;;4846131;29;20456;-85
2023/01/01 05:53:19;;;;;;;5.70;1.97;;;15.30;99.90;;;;;;4843098;29;20188;-85
2023/01/01 05:55:51;;;;;;;7.40;2.43;;;15.30;99.90;;;;;;4853503;29;20208;-84
2023/01/01 05:58:17;;;;;;;4.40;2.93;;;15.30;99.90;;;;;;4840166;29;20196;-85
2023/01/01 06:00:42;;;;;;;3.50;2.13;;;15.20;99.90;;;;;;4825765;29;20485;-85
2023/01/01 06:03:08;;;;;;;4.40;1.70;;;15.20;99.90;;;;;;4833290;29;20196;-85
2023/01/01 06:05:34;;;;;;;4.97;2.37;;;15.20;99.90;;;;;;4838381;29;20641;-85
2023/01/01 06:08:00;;;;;;;4.57;1.70;;;15.20;99.90;;;;;;4844260;29;20200;-85
2023/01/01 06:10:25;;;;;;;7.03;1.77;;;15.20;99.90;;;;;;4850598;29;22127;-84
2023/01/01 06:12:52;;;;;;;7.60;2.27;;;15.20;99.90;;;;;;4841847;29;20666;-85
2023/01/01 06:15:18;;;;;;;6.10;2.37;;;15.20;99.90;;;;;;4864431;29;20191;-85
2023/01/01 06:17:44;;;;;;;5.10;2.13;;;15.20;99.90;;;;;;4850393;29;20447;-85
2023/01/01 06:20:10;;;;;;;4.80;1.63;;;15.20;99.90;;;;;;4849958;29;20302;-85
2023/01/01 06:22:36;;;;;;;2.93;1.63;;;15.20;99.90;;;;;;4844304;29;20590;-85
2023/01/01 06:25:04;;;;;;;3.70;2.00;;;15.20;99.90;;;;;;4843615;29;20449;-85
2023/01/01 06:27:30;;;;;;;10.60;2.20;;;15.10;99.90;;;;;;4840630;29;20445;-85
2023/01/01 06:29:56;;;;;;;6.20;3.00;;;15.20;99.90;;;;;;4849457;29;21000;-85
2023/01/01 06:32:22;;;;;;;3.63;2.17;;;15.20;99.90;;;;;;4861001;29;20276;-84
2023/01/01 06:34:47;;;;;;;4.90;2.00;;;15.20;99.90;;;;;;4840870;29;20955;-85
2023/01/01 06:37:13;;;;;;;3.23;1.70;;;15.20;99.90;;;;;;4842632;29;20640;-84
2023/01/01 06:39:38;;;;;;;7.30;2.50;;;15.20;99.90;;;;;;4844751;29;20250;-85
2023/01/01 06:42:04;;;;;;;5.83;2.10;;;15.20;99.90;;;;;;4848194;29;20192;-85
2023/01/01 06:44:29;;;;;;;3.57;1.90;;;15.20;99.90;;;;;;4841088;29;20269;-85
2023/01/01 06:46:55;;;;;;;3.60;2.23;;;15.10;99.90;;;;;;4842010;29;20275;-85
2023/01/01 06:49:20;;;;;;;6.87;2.10;;;15.20;99.90;;;;;;4845604;29;20234;-85
2023/01/01 06:51:46;;;;;;;5.10;2.50;;;15.20;99.90;;;;;;4845382;29;20201;-85
2023/01/01 06:54:11;;;;;;;3.73;1.77;;;15.10;99.90;;;;;;4844929;29;20197;-85
2023/01/01 06:56:38;;;;;;;11.83;1.80;;;15.10;99.90;;;;;;4841041;29;20196;-85
2023/01/01 06:59:04;;;;;;;5.13;1.97;;;15.10;99.90;;;;;;4838674;29;20212;-85
2023/01/01 07:01:34;;;;;;;4.43;2.40;;;15.10;99.90;;;;;;4838775;29;20470;-86
2023/01/01 07:04:06;;;;;;;4.90;2.10;;;15.10;99.90;;;;;;4828981;29;20498;-85
2023/01/01 07:06:35;;;;;;;5.60;2.03;;;15.10;99.90;;;;;;4838983;29;20451;-86
2023/01/01 07:09:01;;;;;;;3.97;1.60;;;15.10;99.90;;;;;;4843685;29;20463;-85
2023/01/01 07:11:28;;;;;;;3.43;1.97;;;15.00;99.90;;;;;;4845041;29;20458;-85
2023/01/01 07:13:54;;;;;;;6.90;2.33;;;15.10;99.90;;;;;;4845149;29;20195;-85
2023/01/01 07:16:20;;;;;;;3.60;1.77;;;15.10;99.90;;;;;;4839870;29;20463;-85
2023/01/01 07:18:47;;;;;;;3.37;1.73;;;15.00;99.90;;;;;;4842089;29;20487;-85
2023/01/01 07:21:42;;;;;;;4.37;2.33;;;15.00;99.90;;;;;;4845555;29;20486;-86
2023/01/01 07:24:11;;;;;;;11.87;2.27;;;15.00;99.90;;;;;;4836731;29;20449;-85
2023/01/01 07:26:40;;;;;;;4.03;1.77;;;15.00;99.90;;;;;;4861294;29;20430;-85
2023/01/01 07:29:07;;;;;;;5.90;2.30;;;14.90;99.90;;;;;;4849720;29;20460;-86
2023/01/01 07:31:34;;;;;;;4.40;2.73;;;14.90;99.90;;;;;;4842512;29;20440;-85
2023/01/01 07:33:59;;;;;;;12.60;2.37;;;14.80;99.90;;;;;;4840718;29;20437;-85
2023/01/01 07:36:25;;;;;;;8.70;2.17;;;14.80;99.90;;;;;;4844696;29;20644;-84
2023/01/01 07:38:50;;;;;;;5.10;2.30;;;14.80;99.90;;;;;;4847523;29;20210;-85
2023/01/01 07:41:16;;;;;;;4.57;2.20;;;14.70;1.00;;;;;;4845999;29;20195;-85
2023/01/01 07:43:41;;;;;;;7.53;2.10;;;14.70;1.00;;;;;;4842846;29;20203;-85
2023/01/01 07:46:11;;;;;;;8.90;2.93;;;14.70;1.00;;;;;;4849825;29;20267;-85
2023/01/01 07:48:36;;;;;;;8.63;2.30;;;14.70;1.00;;;;;;4847992;29;20249;-86
2023/01/01 07:51:02;;;;;;;5.63;2.53;;;14.70;1.00;;;;;;4851545;29;20892;-85
2023/01/01 07:53:28;;;;;;;6.43;2.50;;;14.60;1.00;;;;;;4842716;29;20187;-85
2023/01/01 07:55:53;;;;;;;7.00;2.20;;;14.60;1.00;;;;;;4843992;29;20199;-86
2023/01/01 07:58:19;;;;;;;9.00;2.70;;;14.60;1.00;;;;;;4847374;29;20674;-84
2023/01/01 08:00:46;;;;;;;5.63;2.60;;;14.60;1.00;;;;;;4841698;29;20227;-85
2023/01/01 08:03:12;;;;;;;9.53;3.23;;;14.60;1.00;;;;;;4845395;29;20441;-86
2023/01/01 08:05:37;;;;;;;4.30;2.00;;;14.60;1.00;;;;;;4843181;29;20445;-84
2023/01/01 08:08:03;;;;;;;6.33;2.27;;;14.60;1.00;;;;;;4842527;29;20199;-84
2023/01/01 08:10:30;;;;;;;11.27;2.53;;;14.60;1.00;;;;;;4845747;29;20290;-85
2023/01/01 08:13:00;;;;;;;9.03;2.30;;;14.60;1.00;;;;;;4851782;29;20197;-85
2023/01/01 08:15:26;;;;;;;8.00;2.43;;;14.60;1.00;;;;;;4847199;29;20451;-85
2023/01/01 08:17:58;;;;;;;5.97;2.60;;;14.60;1.00;;;;;;4856158;29;20441;-85
2023/01/01 08:20:26;;;;;;;13.97;2.67;;;14.60;1.00;;;;;;4855965;29;20284;-85
2023/01/01 08:22:51;;;;;;;14.13;3.33;;;14.60;1.00;;;;;;4848412;29;20452;-85
2023/01/01 08:25:17;;;;;;;5.03;2.07;;;14.60;1.00;;;;;;4838414;29;20476;-86
2023/01/01 08:27:43;;;;;;;11.00;2.80;;;14.70;1.00;;;;;;4848441;29;20267;-85
2023/01/01 08:30:11;;;;;;;5.23;1.80;;;14.70;1.00;;;;;;4840966;29;20475;-86
2023/01/01 08:32:37;;;;;;;6.40;3.03;;;14.70;1.00;;;;;;4847743;29;20519;-85
2023/01/01 08:35:03;;;;;;;8.90;2.57;;;14.70;1.00;;;;;;4847596;29;20455;-85
2023/01/01 08:37:28;;;;;;;8.90;3.10;;;14.70;1.00;;;;;;4845196;29;20219;-85
2023/01/01 08:39:54;;;;;;;6.80;2.60;;;14.70;1.00;;;;;;4855953;29;20503;-85
2023/01/01 08:42:19;;;;;;;9.53;2.33;;;14.70;1.00;;;;;;4853017;29;20191;-85
2023/01/01 08:44:45;;;;;;;5.57;2.40;;;14.70;1.00;;;;;;4846246;29;20608;-85
2023/01/01 08:47:19;;;;;;;7.17;2.60;;;14.80;1.00;;;;;;4847162;29;20187;-85
2023/01/01 08:49:45;;;;;;;6.77;2.57;;;14.80;1.00;;;;;;4846089;29;20468;-85
2023/01/01 08:52:10;;;;;;;4.73;1.53;;;14.80;1.00;;;;;;4842839;29;20513;-86
2023/01/01 08:54:36;;;;;;;6.97;2.23;;;14.80;1.00;;;;;;4847803;29;20248;-85
2023/01/01 08:57:01;;;;;;;4.97;2.10;;;14.90;1.00;;;;;;4836011;29;20749;-85
2023/01/01 08:59:27;;;;;;;7.40;1.93;;;14.90;1.00;;;;;;4828974;29;20221;-85
2023/01/01 09:01:52;;;;;;;8.00;2.53;;;15.00;1.00;;;;;;4827339;29;20215;-85
2023/01/01 09:04:18;;;;;;;9.23;2.57;;;15.00;1.00;;;;;;4829610;29;20241;-84
2023/01/01 09:06:43;;;;;;;5.30;2.53;;;15.00;1.00;;;;;;4843394;29;20184;-85
2023/01/01 09:09:09;;;;;;;4.53;1.87;;;15.10;1.00;;;;;;4849867;29;20307;-85
2023/01/01 09:11:35;;;;;;;8.10;2.47;;;15.00;1.00;;;;;;4845854;29;20198;-86
2023/01/01 09:14:01;;;;;;;8.23;2.60;;;15.10;1.00;;;;;;4845423;29;20196;-85
2023/01/01 09:16:26;;;;;;;7.43;2.60;;;15.10;1.00;;;;;;4845560;29;20809;-87
2023/01/01 09:18:52;;;;;;;7.30;2.40;;;15.00;1.00;;;;;;4850574;29;20272;-85
2023/01/01 09:21:17;;;;;;;4.93;2.00;;;15.10;1.00;;;;;;4840648;29;20624;-86
2023/01/01 09:23:43;;;;;;;10.20;2.67;;;15.10;1.00;;;;;;4841138;29;20199;-86
2023/01/01 09:26:09;;;;;;;6.67;2.67;;;15.20;1.00;;;;;;4840372;29;20192;-86
2023/01/01 09:28:36;;;;;;;6.60;2.70;;;15.40;1.00;;;;;;4849403;29;20219;-86
2023/01/01 09:31:03;;;;;;;5.27;2.23;;;15.40;1.00;;;;;;4840993;29;20438;-85
2023/01/01 09:33:29;;;;;;;4.20;2.10;;;15.60;1.00;;;;;;4841465;29;20565;-84
2023/01/01 09:36:10;;;;;;;18.00;2.77;;;15.70;1.00;;;;;;4861906;29;20925;-86
2023/01/01 09:38:36;;;;;;;7.03;2.03;;;15.70;99.90;;;;;;4854191;29;20565;-86
2023/01/01 09:41:32;;;;;;;6.90;2.37;;;15.70;99.90;;;;;;4842854;29;20525;-85
2023/01/01 09:44:28;;;;;;;5.27;2.40;;;15.70;99.90;;;;;;4844143;29;20280;-84
2023/01/01 09:46:59;;;;;;;6.07;2.20;;;15.70;99.90;;;;;;4838433;29;20542;-85
2023/01/01 09:49:36;;;;;;;4.13;1.87;;;15.60;99.90;;;;;;4858437;29;20895;-87
2023/01/01 09:52:04;;;;;;;4.63;2.10;;;15.50;99.90;;;;;;4846407;29;20879;-87
2023/01/01 09:55:01;;;;;;;3.40;1.90;;;15.50;99.90;;;;;;4843534;29;20451;-86
2023/01/01 09:57:31;;;;;;;5.90;2.30;;;15.50;99.90;;;;;;4845742;29;20885;-85
2023/01/01 09:59:58;;;;;;;7.50;2.20;;;15.40;1.00;;;;;;4848283;29;20982;-85
2023/01/01 10:02:47;;;;;;;6.50;2.07;;;15.40;1.00;;;;;;4832995;29;20587;-87
2023/01/01 10:05:24;;;;;;;5.77;1.70;;;15.40;1.00;;;;;;4833876;29;20441;-86
2023/01/01 10:08:07;;;;;;;5.47;2.23;;;15.50;1.00;;;;;;4848527;29;20438;-85
2023/01/01 10:10:44;;;;;;;9.43;3.00;;;15.40;1.00;;;;;;4846600;29;20881;-86
2023/01/01 10:13:25;;;;;;;8.97;2.10;;;15.50;1.00;;;;;;4844793;29;20443;-89
2023/01/01 10:16:06;;;;;;;6.00;1.77;;;15.50;99.90;;;;;;4847032;29;20438;-87
2023/01/01 10:18:37;;;;;;;4.60;2.00;;;15.60;99.90;;;;;;4841574;29;20470;-88
2023/01/01 10:21:26;;;;;;;6.43;2.03;;;15.50;99.90;;;;;;4841874;29;20535;-89
2023/01/01 10:23:58;;;;;;;6.27;2.20;;;15.50;99.90;;;;;;4835224;29;20453;-89
2023/01/01 10:26:28;;;;;;;7.63;2.50;;;15.50;99.90;;;;;;4844796;29;20480;-89
2023/01/01 10:29:01;;;;;;;6.67;2.60;;;15.50;99.90;;;;;;4837631;29;20467;-89
2023/01/01 10:31:39;;;;;;;9.77;3.67;;;15.40;99.90;;;;;;4837523;29;20475;-89
2023/01/01 10:34:27;;;;;;;6.80;2.70;;;15.40;99.90;;;;;;4840198;29;20473;-89
2023/01/01 10:36:56;;;;;;;3.03;1.70;;;15.40;99.90;;;;;;4841756;29;20443;-89
2023/01/01 10:39:22;;;;;;;8.00;2.40;;;15.40;1.00;;;;;;4858329;29;20473;-91
2023/01/01 10:41:48;;;;;;;6.00;3.20;;;15.40;1.00;;;;;;4843076;29;20442;-89
2023/01/01 10:44:17;;;;;;;8.00;2.90;;;15.40;1.00;;;;;;4838486;29;20469;-89
2023/01/01 10:46:55;;;;;;;7.53;2.77;;;15.50;1.00;;;;;;4834328;29;20465;-90
2023/01/01 10:49:20;;;;;;;7.63;2.70;;;15.50;1.00;;;;;;4836379;29;20477;-89
2023/01/01 10:51:48;;;;;;;8.10;2.47;;;15.60;1.00;;;;;;4840477;29;20857;-89
2023/01/01 10:54:23;;;;;;;8.80;2.20;;;15.70;1.00;;;;;;4840589;29;20244;-90
2023/01/01 10:56:48;;;;;;;7.13;3.10;;;15.70;1.00;;;;;;4828576;29;20458;-89
2023/01/01 10:59:39;;;;;;;4.43;2.40;;;15.70;99.90;;;;;;4835102;29;20888;-87
2023/01/01 11:02:19;;;;;;;13.60;2.60;;;15.80;99.90;;;;;;4834352;29;20278;-90
2023/01/01 11:04:45;;;;;;;6.97;3.17;;;15.80;99.90;;;;;;4848131;29;20446;-88
2023/01/01 11:07:27;;;;;;;8.20;2.53;;;15.80;99.90;;;;;;4833937;29;20445;-87
2023/01/01 11:10:01;;;;;;;6.67;2.37;;;15.80;99.90;;;;;;4840241;29;20392;-88
2023/01/01 11:12:32;;;;;;;4.97;2.00;;;15.80;99.90;;;;;;4846922;29;20443;-87
2023/01/01 11:14:59;;;;;;;8.93;2.80;;;15.80;99.90;;;;;;4845718;29;20509;-91
2023/01/01 11:17:30;;;;;;;6.57;2.80;;;15.80;99.90;;;;;;4841516;29;20445;-89
2023/01/01 11:19:57;;;;;;;10.97;2.93;;;15.70;99.90;;;;;;4839698;29;20489;-89
2023/01/01 11:22:41;;;;;;;7.10;2.67;;;15.70;99.90;;;;;;4842369;29;20444;-88
2023/01/01 11:25:18;;;;;;;8.10;3.10;;;15.70;99.90;;;;;;4846672;29;20457;-88
2023/01/01 11:27:52;;;;;;;9.33;2.60;;;15.70;99.90;;;;;;4844085;29;20452;-87
2023/01/01 11:30:28;;;;;;;7.70;2.70;;;15.70;99.90;;;;;;4855519;29;20468;-88
2023/01/01 11:32:59;;;;;;;5.20;2.17;;;15.70;99.90;;;;;;4837086;29;20550;-87
2023/01/01 11:35:28;;;;;;;13.37;2.50;;;15.70;99.90;;;;;;4842759;29;20504;-87
2023/01/01 11:38:04;;;;;;;3.10;2.07;;;15.80;99.90;;;;;;4840139;29;20446;-88
2023/01/01 11:40:40;;;;;;;10.73;2.57;;;15.80;99.90;;;;;;4844485;29;20476;-84
2023/01/01 11:43:06;;;;;;;6.77;2.60;;;15.90;99.90;;;;;;4828987;29;20498;-87
2023/01/01 11:45:33;;;;;;;4.37;1.87;;;15.90;99.90;;;;;;4838265;29;20449;-85
2023/01/01 11:48:02;;;;;;;6.30;2.20;;;15.90;99.90;;;;;;4837078;29;20914;-86
2023/01/01 11:50:29;;;;;;;4.37;1.60;;;16.00;99.90;;;;;;4842482;29;20553;-86
2023/01/01 11:52:57;;;;;;;8.00;2.03;;;16.00;99.90;;;;;;4846958;29;20452;-89
2023/01/01 11:55:29;;;;;;;10.33;3.50;;;16.00;99.90;;;;;;4843518;29;20478;-88
2023/01/01 11:58:16;;;;;;;4.97;2.23;;;16.10;99.90;;;;;;4838256;29;20458;-86
2023/01/01 12:00:42;;;;;;;7.97;2.00;;;16.10;99.90;;;;;;4840715;29;20489;-86
2023/01/01 12:03:37;;;;;;;7.77;2.90;;;16.10;99.90;;;;;;4850230;29;20524;-86
2023/01/01 12:06:35;;;;;;;5.17;1.90;;;16.10;99.90;;;;;;4854768;29;20446;-86
2023/01/01 12:09:22;;;;;;;7.67;2.83;;;16.10;99.90;;;;;;4821674;29;20478;-86
2023/01/01 12:11:53;;;;;;;7.90;2.40;;;16.10;99.90;;;;;;4835707;29;20436;-88
2023/01/01 12:17:41;;;;;;;13.20;2.30;;;16.00;99.90;;;;;;4841516;29;20505;-86
2023/01/01 12:20:38;;;;;;;6.17;2.20;;;15.90;99.90;;;;;;4839583;29;20482;-86
2023/01/01 12:23:04;;;;;;;8.27;2.77;;;15.90;99.90;;;;;;4838724;29;20464;-87
2023/01/01 12:29:24;;;;;;;4.80;2.30;;;15.80;99.90;;;;;;4830753;29;20194;-86
2023/01/01 12:32:30;;;;;;;5.50;2.30;;;15.80;99.90;;;;;;4847375;29;20480;-89
2023/01/01 12:35:19;;;;;;;4.57;2.20;;;15.70;99.90;;;;;;4828819;29;20415;-87
2023/01/01 12:38:12;;;;;;;6.83;2.30;;;15.70;99.90;;;;;;4829326;29;20551;-87
2023/01/01 12:41:19;;;;;;;6.20;2.63;;;15.70;99.90;;;;;;4839923;29;20548;-87
2023/01/01 12:44:12;;;;;;;5.10;2.13;;;15.70;99.90;;;;;;4820947;29;20537;-87
2023/01/01 12:46:50;;;;;;;6.17;2.20;;;15.70;99.90;;;;;;4836891;29;20431;-86
2023/01/01 12:49:26;;;;;;;7.90;2.43;;;15.60;99.90;;;;;;4836618;29;20453;-86
2023/01/01 12:52:15;;;;;;;5.87;2.30;;;15.60;99.90;;;;;;4822720;29;20432;-86
2023/01/01 12:55:05;;;;;;;7.67;2.23;;;15.60;99.90;;;;;;4829188;29;20462;-86
2023/01/01 12:57:30;;;;;;;10.40;2.13;;;15.60;99.90;;;;;;4839635;29;20453;-85
2023/01/01 13:00:02;;;;;;;4.20;2.07;;;15.50;99.90;;;;;;4838503;29;20485;-86
2023/01/01 13:02:44;;;;;;;;;;;;;;;;;;;;;
2023/01/01 13:05:40;;;;;;;6.43;2.00;;;15.50;99.90;;;;;;4840643;29;20421;-86
2023/01/01 13:08:11;;;;;;;7.03;2.23;;;15.40;99.90;;;;;;4829602;29;20433;-86
2023/01/01 13:11:02;;;;;;;7.20;2.47;;;15.50;99.90;;;;;;4841097;29;20464;-87
2023/01/01 13:13:28;;;;;;;4.70;2.20;;;15.40;99.90;;;;;;4854286;29;20443;-86
2023/01/01 13:15:55;;;;;;;9.83;2.87;;;15.40;99.90;;;;;;4838799;29;20476;-86
2023/01/01 13:18:33;;;;;;;6.37;2.67;;;15.40;99.90;;;;;;4826812;29;20237;-88
2023/01/01 13:21:24;;;;;;;;;;;;;;;;;;;;;
2023/01/01 13:24:11;;;;;;;5.63;2.17;;;15.30;99.90;;;;;;4829112;29;20489;-86
2023/01/01 13:27:02;;;;;;;4.53;2.00;;;15.40;99.90;;;;;;4829472;29;20509;-86
2023/01/01 13:29:48;;;;;;;7.63;2.20;;;15.30;99.90;;;;;;4833377;29;20845;-86
2023/01/01 13:32:19;;;;;;;6.50;2.10;;;15.30;99.90;;;;;;4836652;29;20429;-86
2023/01/01 13:35:19;;;;;;;7.63;2.40;;;15.30;99.90;;;;;;4826233;29;20446;-87
2023/01/01 13:37:56;;;;;;;6.40;2.60;;;15.30;99.90;;;;;;4826775;29;20438;-86
2023/01/01 13:40:47;;;;;;;6.10;2.57;;;15.30;99.90;;;;;;4830631;29;20479;-86